Time;durP1;ratioP1;P1;durP2;ratioP2;P2;SDS_P1;SDS_P2;PMS_P1;PMS_P2;Temp;Humidity;BMP_temperature;BMP_pressure;BME280_temperature;BME280_humidity;BME280_pressure;Samples;Min_cycle;Max_cycle;Signal;HPM_P1;HPM_P2
2022/04/18 00:02:19;;;;;;;0.50;0.50;;;;;;;4.36;100.00;100085.53;5032369;28;20133;-85
2022/04/18 00:04:45;;;;;;;0.70;0.70;;;;;;;4.47;100.00;100098.91;5031192;28;20057;-84
2022/04/18 00:07:11;;;;;;;1.08;0.90;;;;;;;4.47;100.00;100091.22;5030160;28;20523;-82
2022/04/18 00:09:37;;;;;;;1.63;0.90;;;;;;;4.42;100.00;100102.00;5031499;28;20021;-81
2022/04/18 00:12:03;;;;;;;1.33;1.10;;;;;;;4.36;100.00;100090.66;5031401;28;20044;-79
2022/04/18 00:14:28;;;;;;;1.48;0.98;;;;;;;4.50;100.00;100109.31;5029475;28;20025;-78
2022/04/18 00:16:54;;;;;;;1.45;0.95;;;;;;;4.38;100.00;100100.94;5031307;28;20113;-79
2022/04/18 00:19:20;;;;;;;0.80;0.80;;;;;;;4.32;100.00;100095.50;5031511;28;20092;-80
2022/04/18 00:21:45;;;;;;;1.42;0.93;;;;;;;4.28;100.00;100103.78;5031431;28;20100;-79
2022/04/18 00:24:11;;;;;;;1.25;1.00;;;;;;;4.27;100.00;100095.22;5031257;28;20032;-79
2022/04/18 00:26:39;;;;;;;0.80;0.80;;;;;;;4.25;100.00;100101.06;5027968;28;20029;-82
2022/04/18 00:29:05;;;;;;;0.90;0.90;;;;;;;4.13;100.00;100085.94;5009806;28;20030;-80
2022/04/18 00:31:31;;;;;;;1.00;0.90;;;;;;;4.08;100.00;100090.78;5030812;28;20578;-80
2022/04/18 00:33:57;;;;;;;1.03;1.00;;;;;;;4.10;100.00;100095.97;5030931;28;20036;-79
2022/04/18 00:36:22;;;;;;;0.80;0.80;;;;;;;4.18;100.00;100104.94;5030993;28;20079;-80
2022/04/18 00:38:47;;;;;;;1.33;0.97;;;;;;;4.09;100.00;100101.84;5030883;28;20061;-76
2022/04/18 00:41:13;;;;;;;0.90;0.80;;;;;;;4.03;100.00;100090.50;5031262;28;20453;-79
2022/04/18 00:43:46;;;;;;;0.90;0.90;;;;;;;4.04;100.00;100099.06;5030801;28;20105;-83
2022/04/18 00:46:13;;;;;;;0.97;0.90;;;;;;;3.95;100.00;100090.84;5030842;28;20032;-79
2022/04/18 00:48:39;;;;;;;0.60;0.60;;;;;;;3.90;100.00;100090.63;5030872;28;20045;-80
2022/04/18 00:51:07;;;;;;;1.03;0.80;;;;;;;3.93;100.00;100112.91;5029657;28;20519;-81
2022/04/18 00:53:36;;;;;;;0.87;0.77;;;;;;;3.83;100.00;100075.72;5030801;28;20031;-81
2022/04/18 00:56:03;;;;;;;1.87;1.13;;;;;;;3.89;100.00;100097.38;5032397;28;20495;-81
2022/04/18 00:58:29;;;;;;;1.43;1.10;;;;;;;3.92;100.00;100095.81;5030307;28;20068;-81
2022/04/18 01:00:55;;;;;;;0.97;0.87;;;;;;;3.94;100.00;100097.66;5034815;28;20450;-84
2022/04/18 01:03:20;;;;;;;16.83;9.77;;;;;;;4.00;100.00;100090.34;5030629;28;20026;-81
2022/04/18 01:05:47;;;;;;;5.33;2.60;;;;;;;3.79;100.00;100068.66;5030801;28;20108;-82
2022/04/18 01:08:13;;;;;;;1.37;1.27;;;;;;;3.93;100.00;100084.81;5030102;28;20083;-81
2022/04/18 01:10:39;;;;;;;3.60;2.97;;;;;;;3.96;100.00;100085.84;5012738;28;20057;-81
2022/04/18 01:13:05;;;;;;;1.40;1.30;;;;;;;3.92;100.00;100080.47;5029666;28;20131;-84
2022/04/18 01:15:30;;;;;;;6.50;5.90;;;;;;;3.87;100.00;100075.97;5029966;28;20029;-84
2022/04/18 01:17:56;;;;;;;1.00;0.70;;;;;;;3.63;100.00;100049.91;5028856;28;20033;-87
2022/04/18 01:20:22;;;;;;;1.77;0.90;;;;;;;3.78;100.00;100075.44;5029120;28;20032;-86
2022/04/18 01:22:51;;;;;;;0.57;0.57;;;;;;;3.81;100.00;100090.06;5012122;28;20072;-86
2022/04/18 01:30:51;;;;;;;0.53;0.53;;;;;;;3.42;100.00;100026.56;5031320;28;20045;-82
2022/04/18 01:33:17;;;;;;;0.50;0.50;;;;;;;3.54;100.00;100040.06;5008501;28;20041;-83
2022/04/18 01:35:42;;;;;;;0.93;0.60;;;;;;;3.75;100.00;100056.53;5008720;28;20052;-81
2022/04/18 01:38:08;;;;;;;0.50;0.50;;;;;;;3.63;100.00;100041.38;4991996;28;20056;-87
2022/04/18 01:40:33;;;;;;;0.50;0.50;;;;;;;3.59;100.00;100032.69;4992215;28;20029;-83
2022/04/18 01:42:58;;;;;;;0.50;0.50;;;;;;;3.75;100.00;100066.72;4992033;28;20046;-84
2022/04/18 01:45:24;;;;;;;0.40;0.40;;;;;;;3.87;100.00;100072.53;4988691;28;20456;-83
2022/04/18 01:47:49;;;;;;;0.70;0.70;;;;;;;3.85;100.00;100058.78;4972557;28;20517;-81
2022/04/18 01:50:15;;;;;;;0.63;0.63;;;;;;;3.68;100.00;100051.06;4988817;28;20048;-83
2022/04/18 01:52:40;;;;;;;33.17;16.97;;;;;;;3.70;100.00;100059.69;4972427;28;20034;-84
2022/04/18 01:55:06;;;;;;;1.23;1.10;;;;;;;3.62;100.00;100067.72;4972154;28;20042;-82
2022/04/18 01:57:32;;;;;;;0.70;0.70;;;;;;;3.75;100.00;100059.06;4972175;28;20069;-84
2022/04/18 01:59:57;;;;;;;4.13;3.73;;;;;;;3.63;100.00;100047.38;4972161;28;20034;-85
2022/04/18 02:02:22;;;;;;;2.00;1.80;;;;;;;3.72;100.00;100067.44;4988469;28;20119;-83
2022/04/18 02:04:48;;;;;;;2.57;1.40;;;;;;;3.66;100.00;100052.63;4972334;28;20469;-83
2022/04/18 02:07:14;;;;;;;0.70;0.60;;;;;;;3.85;100.00;100072.47;4988730;28;20125;-85
2022/04/18 02:09:40;;;;;;;2.40;0.50;;;;;;;3.89;100.00;100060.75;4988592;28;20113;-84
2022/04/18 02:12:06;;;;;;;0.60;0.50;;;;;;;3.89;100.00;100055.66;4988395;28;20494;-84
2022/04/18 02:14:32;;;;;;;1.33;0.50;;;;;;;3.62;100.00;100004.75;4988512;28;20034;-85
2022/04/18 02:16:57;;;;;;;0.50;0.47;;;;;;;3.63;100.00;100018.41;5006860;28;20060;-85
2022/04/18 02:19:22;;;;;;;0.40;0.40;;;;;;;3.82;100.00;100043.31;5030226;28;20481;-85
2022/04/18 02:21:48;;;;;;;0.40;0.40;;;;;;;3.54;100.00;99995.78;5030556;28;20029;-85
2022/04/18 02:24:14;;;;;;;1.87;1.30;;;;;;;3.82;100.00;100048.44;5030839;28;20025;-84
2022/04/18 02:26:40;;;;;;;0.90;0.90;;;;;;;3.56;100.00;100025.72;5030667;28;20036;-86
2022/04/18 02:29:05;;;;;;;0.93;0.93;;;;;;;3.65;100.00;100057.66;5012668;28;20763;-85
2022/04/18 02:31:31;;;;;;;2.10;1.77;;;;;;;3.69;100.00;100049.41;5030526;28;20037;-84
2022/04/18 02:33:56;;;;;;;2.37;2.10;;;;;;;3.60;100.00;100026.78;5012689;28;20409;-87
2022/04/18 02:38:57;;;;;;;0.83;0.80;;;;;;;3.86;100.00;100065.66;5205620;22;20058;-83
2022/04/18 02:41:22;;;;;;;0.70;0.70;;;;;;;3.90;100.00;100057.41;5011327;28;20061;-83
2022/04/18 02:43:47;;;;;;;0.57;0.57;;;;;;;3.76;100.00;100043.84;5010761;28;20029;-82
2022/04/18 02:46:13;;;;;;;0.60;0.60;;;;;;;3.65;100.00;100038.13;5010843;28;20096;-83
2022/04/18 02:48:43;;;;;;;0.70;0.70;;;;;;;3.61;100.00;100028.50;5010921;28;20086;-83
2022/04/18 02:51:09;;;;;;;2.10;0.70;;;;;;;3.40;100.00;99985.66;5010911;28;20022;-82
2022/04/18 02:53:34;;;;;;;0.60;0.60;;;;;;;3.71;100.00;100030.81;4993250;28;20113;-83
2022/04/18 02:56:00;;;;;;;0.70;0.70;;;;;;;3.80;100.00;100039.78;4992967;28;20478;-84
2022/04/18 02:58:25;;;;;;;1.53;1.03;;;;;;;3.71;100.00;100023.16;5009556;28;20026;-84
2022/04/18 03:00:51;;;;;;;1.10;0.90;;;;;;;3.81;100.00;100049.22;4993315;28;20080;-86
2022/04/18 03:03:16;;;;;;;2.33;0.93;;;;;;;3.76;100.00;100035.31;4993275;28;20037;-85
2022/04/18 03:05:42;;;;;;;1.17;1.00;;;;;;;3.71;100.00;100030.81;4993267;28;20072;-86
2022/04/18 03:08:07;;;;;;;1.30;1.20;;;;;;;3.71;100.00;100051.25;4993110;28;20034;-84
2022/04/18 03:13:16;;;;;;;3.60;1.60;;;;;;;3.63;100.00;100026.94;5010480;28;20414;-82
2022/04/18 03:15:42;;;;;;;1.20;1.10;;;;;;;3.84;100.00;100060.47;4996127;28;20021;-85
2022/04/18 03:18:08;;;;;;;2.17;1.30;;;;;;;3.79;100.00;100056.78;4996461;28;20057;-83
2022/04/18 03:20:34;;;;;;;1.40;1.20;;;;;;;3.63;100.00;100034.59;5014038;28;20053;-84
2022/04/18 03:22:59;;;;;;;1.33;1.20;;;;;;;3.80;100.00;100061.13;4996354;28;20095;-86
2022/04/18 03:25:25;;;;;;;3.00;2.50;;;;;;;3.89;100.00;100058.19;4995122;28;20109;-85
2022/04/18 03:27:50;;;;;;;8.03;6.93;;;;;;;3.75;100.00;100044.66;4996071;28;20026;-82
2022/04/18 03:30:16;;;;;;;2.90;1.73;;;;;;;3.58;100.00;100010.50;4996403;28;20033;-85
2022/04/18 03:32:41;;;;;;;2.97;1.60;;;;;;;3.70;100.00;100057.16;4996483;28;20029;-82
2022/04/18 03:35:07;;;;;;;2.23;1.50;;;;;;;3.83;100.00;100055.28;4996176;28;20521;-82
2022/04/18 03:40:16;;;;;;;1.97;1.17;;;;;;;3.71;100.00;100023.16;5011288;28;20461;-87
2022/04/18 03:42:42;;;;;;;1.70;1.40;;;;;;;3.81;100.00;100054.31;4996009;28;20033;-84
2022/04/18 03:45:08;;;;;;;2.45;1.40;;;;;;;3.83;100.00;100057.84;5012965;28;20124;-86
2022/04/18 03:47:33;;;;;;;1.70;1.40;;;;;;;3.71;100.00;100029.94;5013430;28;20450;-82
2022/04/18 03:56:42;;;;;;;1.77;1.33;;;;;;;3.83;100.00;100057.84;5014291;28;20038;-83
2022/04/18 03:59:07;;;;;;;2.23;1.47;;;;;;;3.85;100.00;100067.34;5013841;28;20026;-83
2022/04/18 04:01:42;;;;;;;1.70;1.40;;;;;;;3.72;100.00;100054.66;5013998;28;20030;-85
2022/04/18 04:04:08;;;;;;;2.53;1.30;;;;;;;3.53;100.00;100019.56;5012787;28;20486;-84
2022/04/18 04:06:36;;;;;;;1.57;1.40;;;;;;;3.75;100.00;100053.97;5013860;28;20033;-85
2022/04/18 04:09:07;;;;;;;2.40;1.70;;;;;;;3.67;100.00;100054.41;5013760;28;20036;-82
2022/04/18 04:11:33;;;;;;;2.03;1.33;;;;;;;3.61;100.00;100038.72;5013476;28;20037;-81
2022/04/18 04:14:08;;;;;;;3.33;1.50;;;;;;;3.52;100.00;100043.31;5013816;28;20026;-86
2022/04/18 04:19:29;;;;;;;2.37;1.63;;;;;;;3.69;100.00;100063.03;5026067;23;20064;-83
2022/04/18 04:21:55;;;;;;;1.43;1.33;;;;;;;3.52;100.00;100062.03;4997349;28;20030;-81
2022/04/18 04:24:20;;;;;;;2.37;1.37;;;;;;;3.51;100.00;100051.75;5012619;28;20026;-81
2022/04/18 04:26:46;;;;;;;2.10;1.60;;;;;;;3.67;100.00;100072.28;5010177;28;20030;-81
2022/04/18 04:29:11;;;;;;;2.37;1.60;;;;;;;3.85;100.00;100069.91;5012481;28;20525;-82
2022/04/18 04:31:37;;;;;;;2.80;1.83;;;;;;;3.62;100.00;100014.97;4999934;28;20044;-80
2022/04/18 04:34:03;;;;;;;4.20;1.77;;;;;;;3.91;100.00;100074.47;5023059;28;20844;-81
2022/04/18 04:36:28;;;;;;;2.20;1.47;;;;;;;3.76;100.00;100028.50;5009369;28;20513;-81
2022/04/18 04:38:54;;;;;;;2.43;1.70;;;;;;;3.85;100.00;100058.78;5031747;28;20512;-81
2022/04/18 04:41:19;;;;;;;3.13;1.88;;;;;;;4.03;100.00;100075.16;5031856;28;20442;-81
2022/04/18 04:43:44;;;;;;;1.98;1.40;;;;;;;3.86;100.00;100053.81;5014365;28;20495;-81
2022/04/18 04:46:10;;;;;;;2.57;1.80;;;;;;;3.87;100.00;100059.78;5014123;28;20025;-81
2022/04/18 04:48:35;;;;;;;2.60;1.40;;;;;;;3.82;100.00;100079.94;5031711;28;20036;-82
2022/04/18 04:51:00;;;;;;;2.27;1.77;;;;;;;4.00;100.00;100077.56;5031529;28;20043;-83
2022/04/18 04:53:26;;;;;;;2.00;1.53;;;;;;;3.87;100.00;100077.66;5031734;28;20124;-80
2022/04/18 04:55:51;;;;;;;1.67;1.30;;;;;;;4.05;100.00;100077.84;5028076;28;20029;-81
2022/04/18 04:58:17;;;;;;;2.83;1.50;;;;;;;4.19;100.00;100079.47;5030383;28;20547;-82
2022/04/18 05:00:42;;;;;;;2.20;1.40;;;;;;;3.82;100.00;100043.31;5013809;28;20087;-81
2022/04/18 05:03:08;;;;;;;4.70;1.63;;;;;;;4.16;100.00;100074.22;5032903;28;20026;-81
2022/04/18 05:05:34;;;;;;;10.00;2.00;;;;;;;4.18;100.00;100080.25;5040215;28;20404;-82
2022/04/18 05:08:00;;;;;;;5.40;2.37;;;;;;;4.18;100.00;100079.41;5041054;28;20108;-82
2022/04/18 05:10:25;;;;;;;3.83;2.57;;;;;;;4.24;100.00;100089.06;5042709;28;20039;-81
2022/04/18 05:12:50;;;;;;;5.35;3.30;;;;;;;4.18;100.00;100084.50;5022381;28;20026;-82
2022/04/18 05:15:16;;;;;;;2.47;1.55;;;;;;;4.30;100.00;100091.97;5039335;28;20059;-83
2022/04/18 05:17:41;;;;;;;2.10;1.40;;;;;;;4.24;100.00;100074.63;5039838;28;20057;-81
2022/04/18 05:20:08;;;;;;;1.33;1.20;;;;;;;4.29;100.00;100098.75;5039632;28;20065;-83
2022/04/18 05:22:33;;;;;;;5.07;2.85;;;;;;;4.28;100.00;100083.34;5039902;28;20029;-81
2022/04/18 05:24:59;;;;;;;4.35;2.65;;;;;;;4.26;100.00;100072.16;5041148;28;20026;-83
2022/04/18 05:27:24;;;;;;;2.35;1.67;;;;;;;4.35;100.00;100088.88;5021174;28;20039;-81
2022/04/18 05:29:50;;;;;;;3.42;2.67;;;;;;;4.25;100.00;100052.50;5041682;28;20435;-81
2022/04/18 05:32:16;;;;;;;7.40;6.17;;;;;;;4.20;100.00;100042.91;5035500;28;20080;-82
2022/04/18 05:34:42;;;;;;;2.80;2.10;;;;;;;4.44;100.00;100096.19;5039886;28;20032;-81
2022/04/18 05:37:07;;;;;;;2.65;1.90;;;;;;;4.47;100.00;100091.22;5030362;28;20040;-81
2022/04/18 05:39:34;;;;;;;2.60;1.58;;;;;;;4.57;100.00;100090.06;5030768;28;20485;-82
2022/04/18 05:41:59;;;;;;;1.65;1.20;;;;;;;4.52;100.00;100078.69;5030542;28;20459;-82
2022/04/18 05:44:25;;;;;;;1.77;1.02;;;;;;;4.59;100.00;100088.47;5032382;28;20107;-82
2022/04/18 05:46:51;;;;;;;1.70;1.13;;;;;;;4.67;100.00;100099.13;5041704;28;20021;-83
2022/04/18 05:49:17;;;;;;;1.85;1.20;;;;;;;4.57;100.00;100084.06;5039331;28;20100;-82
2022/04/18 05:51:42;;;;;;;1.20;1.10;;;;;;;4.67;100.00;100087.22;5040800;28;20123;-82
2022/04/18 05:54:09;;;;;;;1.25;1.15;;;;;;;4.58;100.00;100080.72;5021485;28;20552;-81
2022/04/18 05:56:34;;;;;;;1.55;1.30;;;;;;;4.58;100.00;100073.94;5128489;22;20040;-83
2022/04/18 05:59:00;;;;;;;2.10;1.38;;;;;;;4.43;100.00;100058.63;5032517;28;20396;-82
2022/04/18 06:01:25;;;;;;;1.60;1.30;;;;;;;4.70;100.00;100097.59;5040195;28;20487;-84
2022/04/18 06:03:51;;;;;;;1.45;1.10;;;;;;;4.57;100.00;100074.72;5020593;28;20025;-83
2022/04/18 06:06:16;;;;;;;1.15;1.05;;;;;;;4.68;100.00;100091.53;5027284;28;20500;-82
2022/04/18 06:08:42;;;;;;;2.15;1.00;;;;;;;4.73;100.00;100098.59;5045465;28;20033;-82
2022/04/18 06:11:07;;;;;;;2.20;1.38;;;;;;;4.79;100.00;100107.47;5038983;28;20033;-83
2022/04/18 06:13:33;;;;;;;1.85;1.20;;;;;;;4.57;100.00;100066.19;5034133;28;20443;-86
2022/04/18 06:15:59;;;;;;;1.77;1.27;;;;;;;4.69;100.00;100090.72;5036995;28;20140;-85
2022/04/18 06:18:24;;;;;;;1.58;1.13;;;;;;;4.64;100.00;100071.69;5032701;28;20029;-81
2022/04/18 06:20:49;;;;;;;1.30;1.20;;;;;;;4.86;100.00;100113.81;5036042;28;20040;-86
2022/04/18 06:23:17;;;;;;;4.55;1.30;;;;;;;4.83;100.00;100094.03;5038014;28;20029;-82
2022/04/18 06:25:43;;;;;;;3.47;1.90;;;;;;;4.94;100.00;100101.41;5039966;28;20032;-86
2022/04/18 06:28:09;;;;;;;2.60;1.88;;;;;;;4.97;100.00;100091.34;5034571;28;20029;-85
2022/04/18 06:30:35;;;;;;;18.00;11.55;;;;;;;5.08;100.00;100117.50;5038008;28;20060;-85
2022/04/18 06:33:00;;;;;;;7.90;4.15;;;;;;;5.08;100.00;100118.38;5013987;28;20061;-83
2022/04/18 06:35:26;;;;;;;4.32;3.17;;;;;;;4.81;100.00;100094.75;5036595;28;20485;-81
2022/04/18 06:37:51;;;;;;;1.65;1.52;;;;;;;4.95;100.00;100121.97;5031580;28;20028;-81
2022/04/18 06:40:18;;;;;;;36.92;24.10;;;;;;;4.93;100.00;100115.00;5037459;28;20029;-82
2022/04/18 06:42:43;;;;;;;2.17;1.65;;;;;;;4.96;100.00;100117.72;5036047;28;20471;-84
2022/04/18 06:45:09;;;;;;;5.93;1.50;;;;;;;4.83;100.00;100103.41;5021813;28;20061;-86
2022/04/18 06:47:37;;;;;;;4.28;2.45;;;;;;;4.86;100.00;100121.47;5038546;28;20032;-88
2022/04/18 06:50:08;;;;;;;2.63;2.00;;;;;;;4.86;100.00;100130.00;5037900;28;20025;-89
2022/04/18 06:52:41;;;;;;;2.67;1.75;;;;;;;4.75;100.00;100135.31;5039483;28;20133;-88
2022/04/18 06:55:08;;;;;;;19.67;11.57;;;;;;;4.73;100.00;100117.34;5016622;28;20048;-91
2022/04/18 06:57:35;;;;;;;6.03;3.58;;;;;;;4.85;100.00;100130.81;5035428;28;20424;-86
2022/04/18 07:00:03;;;;;;;7.88;4.45;;;;;;;4.75;100.00;100114.88;5032908;28;20037;-87
2022/04/18 07:02:29;;;;;;;1.63;0.90;;;;;;;4.98;100.00;100134.91;5017039;28;20051;-85
2022/04/18 07:04:55;;;;;;;2.67;1.70;;;;;;;4.91;100.00;100126.81;5038299;28;20558;-83
2022/04/18 07:07:21;;;;;;;1.60;1.17;;;;;;;5.00;100.00;100141.00;5037894;28;20022;-84
2022/04/18 07:09:47;;;;;;;1.38;0.90;;;;;;;4.93;100.00;100131.22;5042582;28;20060;-84
2022/04/18 07:12:13;;;;;;;1.02;0.80;;;;;;;4.66;100.00;100115.25;5036871;28;20052;-83
2022/04/18 07:14:39;;;;;;;1.10;1.00;;;;;;;4.96;100.00;100151.88;5022942;28;20041;-83
2022/04/18 07:17:06;;;;;;;1.10;1.00;;;;;;;5.00;100.00;100160.59;5024061;28;20072;-84
2022/04/18 07:19:33;;;;;;;1.92;1.05;;;;;;;5.02;100.00;100170.09;5035850;28;20583;-86
2022/04/18 07:21:58;;;;;;;6.15;2.33;;;;;;;5.03;100.00;100168.41;5019322;28;20408;-85
2022/04/18 07:24:24;;;;;;;4.47;1.70;;;;;;;5.00;100.00;100151.22;5038286;28;20036;-84
2022/04/18 07:26:50;;;;;;;2.50;2.08;;;;;;;5.25;100.00;100182.38;5039119;28;20029;-85
2022/04/18 07:29:15;;;;;;;1.02;0.90;;;;;;;5.03;100.00;100160.75;4990403;28;20042;-85
2022/04/18 07:31:41;;;;;;;3.05;1.80;;;;;;;5.22;100.00;100180.53;4974692;28;20045;-85
2022/04/18 07:34:07;;;;;;;2.67;1.55;;;;;;;4.96;100.00;100133.06;4963978;28;20611;-86
2022/04/18 07:36:32;;;;;;;15.38;7.22;;;;;;;5.33;100.00;100171.75;4962380;28;20039;-84
2022/04/18 07:38:58;;;;;;;1.67;1.08;;;;;;;5.27;100.00;100166.31;4967587;28;20222;-85
2022/04/18 07:41:26;;;;;;;4.63;0.80;;;;;;;5.28;100.00;100175.75;4987750;28;20466;-86
2022/04/18 07:43:53;;;;;;;5.78;3.67;;;;;;;5.43;100.00;100193.63;4986244;28;20035;-86
2022/04/18 07:46:19;;;;;;;6.30;2.20;;;;;;;5.50;100.00;100176.88;4963913;28;20097;-87
2022/04/18 07:48:47;;;;;;;4.35;2.60;;;;;;;5.57;100.00;100196.00;4981474;28;20085;-87
2022/04/18 07:53:57;;;;;;;14.23;2.58;;;;;;;5.34;100.00;100172.63;4981465;28;20033;-87
2022/04/18 07:56:23;;;;;;;10.48;3.13;;;;;;;5.47;100.00;100200.66;4988424;28;20043;-85
2022/04/18 07:58:50;;;;;;;9.82;1.95;;;;;;;5.41;100.00;100189.19;4965338;28;20130;-84
2022/04/18 08:01:18;;;;;;;4.35;1.50;;;;;;;5.24;100.00;100173.81;4988982;28;20069;-82
2022/04/18 08:03:44;;;;;;;2.57;1.40;;;;;;;5.29;100.00;100186.88;5008270;28;20476;-87
2022/04/18 08:06:10;;;;;;;3.03;1.55;;;;;;;5.08;100.00;100150.75;5009892;28;20309;-86
2022/04/18 08:08:37;;;;;;;4.20;2.40;;;;;;;5.49;100.00;100211.81;5003642;28;20513;-86
2022/04/18 08:11:03;;;;;;;4.07;2.97;;;;;;;5.39;100.00;100207.03;4990125;28;20120;-87
2022/04/18 08:13:29;;;;;;;1.17;0.90;;;;;;;5.01;100.00;100162.34;4990148;28;20445;-84
2022/04/18 08:15:54;;;;;;;1.98;0.80;;;;;;;5.10;100.00;100182.44;5001104;28;20037;-84
2022/04/18 08:18:22;;;;;;;5.55;1.65;;;;;;;5.29;100.00;100209.91;5014873;28;20040;-87
2022/04/18 08:20:49;;;;;;;4.63;2.33;;;;;;;5.13;100.00;100196.25;5015520;28;20026;-84
2022/04/18 08:23:15;;;;;;;0.90;0.82;;;;;;;5.11;100.00;100204.66;5015775;28;20025;-83
2022/04/18 08:25:40;;;;;;;2.70;0.68;;;;;;;5.11;100.00;100212.31;5014782;28;20179;-86
2022/04/18 08:28:07;;;;;;;0.68;0.68;;;;;;;5.08;100.00;100209.63;5032162;28;20124;-84
2022/04/18 08:30:33;;;;;;;5.05;2.47;;;;;;;5.26;100.00;100228.53;5033238;28;20642;-85
2022/04/18 08:32:58;;;;;;;2.05;1.30;;;;;;;5.32;100.00;100230.53;5014028;28;20037;-84
2022/04/18 08:35:23;;;;;;;3.67;2.15;;;;;;;5.43;100.00;100226.00;5000967;28;20038;-81
2022/04/18 08:37:49;;;;;;;10.20;3.15;;;;;;;4.99;100.00;100140.91;4994839;28;20083;-82
2022/04/18 08:40:15;;;;;;;8.88;1.60;;;;;;;5.02;100.00;100177.78;4994886;28;20415;-87
2022/04/18 08:42:41;;;;;;;5.78;1.20;;;;;;;5.02;100.00;100203.38;5012791;28;20100;-84
2022/04/18 08:45:09;;;;;;;3.95;1.67;;;;;;;5.10;100.00;100197.78;4994797;28;20128;-84
2022/04/18 08:53:09;;;;;;;2.80;1.40;;;;;;;5.59;100.00;100238.81;5031960;28;20040;-77
2022/04/18 08:55:34;;;;;;;1.55;0.95;;;;;;;5.59;100.00;100212.34;5031475;28;20036;-79
2022/04/18 08:58:00;;;;;;;1.38;0.90;;;;;;;5.76;100.00;100241.41;5031400;28;20484;-77
2022/04/18 09:00:27;;;;;;;1.90;1.35;;;;;;;5.67;100.00;100224.75;5013912;28;20554;-77
2022/04/18 09:02:53;;;;;;;3.42;2.45;;;;;;;5.62;100.00;100203.13;5030905;28;20077;-84
2022/04/18 09:05:19;;;;;;;1.75;1.20;;;;;;;5.82;100.00;100232.34;5029259;28;20033;-77
2022/04/18 09:07:59;;;;;;;2.78;1.70;;;;;;;5.69;100.00;100221.38;5025069;28;20040;-77
2022/04/18 09:10:25;;;;;;;3.08;1.00;;;;;;;5.82;100.00;100245.16;5030749;28;20562;-77
2022/04/18 09:12:51;;;;;;;3.85;2.15;;;;;;;5.83;100.00;100236.69;5026511;28;20091;-78
2022/04/18 09:15:30;;;;;;;3.90;1.10;;;;;;;5.91;100.00;100237.06;5030404;28;20400;-81
2022/04/18 09:18:06;;;;;;;1.48;1.15;;;;;;;5.97;100.00;100239.94;5011674;28;20038;-77
2022/04/18 09:20:40;;;;;;;1.25;1.00;;;;;;;5.83;100.00;100197.34;5030287;28;20029;-77
2022/04/18 09:23:17;;;;;;;2.78;1.42;;;;;;;5.93;100.00;100225.22;5012317;28;20398;-77
2022/04/18 09:25:43;;;;;;;1.65;1.10;;;;;;;5.89;100.00;100217.28;5030469;28;20144;-77
2022/04/18 09:28:11;;;;;;;1.25;1.05;;;;;;;5.88;100.00;100236.03;5030361;28;20116;-77
2022/04/18 09:30:37;;;;;;;0.90;0.90;;;;;;;5.93;100.00;100235.47;5029328;28;20608;-77
2022/04/18 09:33:08;;;;;;;1.20;1.00;;;;;;;5.65;100.00;100198.16;5011870;28;20116;-77
2022/04/18 09:35:35;;;;;;;1.02;0.95;;;;;;;5.78;100.00;100232.09;5025765;28;20084;-78
2022/04/18 09:38:06;;;;;;;1.20;0.80;;;;;;;5.74;100.00;100232.75;5025317;28;20685;-76
2022/04/18 09:40:33;;;;;;;1.35;1.00;;;;;;;5.74;100.00;100230.19;5011974;28;20025;-78
2022/04/18 09:42:59;;;;;;;1.20;1.10;;;;;;;5.64;100.00;100222.00;5030650;28;20024;-77
2022/04/18 09:45:24;;;;;;;1.50;1.40;;;;;;;5.60;100.00;100217.53;5012157;28;20018;-77
2022/04/18 09:47:55;;;;;;;4.07;1.80;;;;;;;5.34;100.00;100181.16;5029750;28;20036;-78
2022/04/18 09:53:08;;;;;;;8.38;2.80;;;;;;;5.75;100.00;100211.47;5010665;28;20068;-78
2022/04/18 09:55:35;;;;;;;10.90;2.78;;;;;;;5.60;100.00;100212.41;5011541;28;20021;-79
2022/04/18 09:58:03;;;;;;;8.30;2.47;;;;;;;5.65;100.00;100220.34;4989971;28;20144;-79
2022/04/18 10:00:30;;;;;;;5.15;2.13;;;;;;;5.65;100.00;100203.28;4992830;28;20120;-80
2022/04/18 10:03:00;;;;;;;4.97;2.00;;;;;;;5.87;100.00;100221.44;5008579;28;20037;-81
2022/04/18 10:05:29;;;;;;;2.60;1.80;;;;;;;5.77;100.00;100209.84;5008663;28;20037;-81
2022/04/18 10:07:56;;;;;;;8.68;3.53;;;;;;;5.83;100.00;100228.09;4992751;28;20049;-81
2022/04/18 10:10:22;;;;;;;3.45;2.08;;;;;;;5.70;100.00;100215.47;4994596;28;20030;-81
2022/04/18 10:12:50;;;;;;;1.92;1.60;;;;;;;5.67;100.00;100229.88;5006615;28;20030;-79
2022/04/18 10:15:16;;;;;;;6.95;3.28;;;;;;;5.70;100.00;100230.84;4991929;28;20034;-84
2022/04/18 10:17:43;;;;;;;8.77;4.28;;;;;;;5.64;100.00;100218.56;4991105;28;20178;-86
2022/04/18 10:20:40;;;;;;;14.60;5.20;;;;;;;5.79;100.00;100223.63;4989207;28;20037;-83
2022/04/18 10:23:52;;;;;;;4.65;2.42;;;;;;;5.34;100.00;100175.19;5010807;28;20037;-79
2022/04/18 10:26:54;;;;;;;13.73;5.45;;;;;;;5.82;100.00;100242.59;4954175;29;20039;-80
2022/04/18 10:29:32;;;;;;;7.32;2.70;;;;;;;5.86;100.00;100250.44;4954137;29;20039;-81
2022/04/18 10:32:03;;;;;;;21.63;4.57;;;;;;;5.89;100.00;100248.03;4956557;28;20042;-78
2022/04/18 10:34:31;;;;;;;5.55;2.78;;;;;;;5.72;100.00;100234.34;4965513;28;20425;-80
2022/04/18 10:37:01;;;;;;;4.57;2.90;;;;;;;5.85;100.00;100253.81;4973099;28;20043;-75
2022/04/18 10:39:38;;;;;;;9.77;5.45;;;;;;;5.87;100.00;100240.28;4973188;28;20118;-80
2022/04/18 10:42:23;;;;;;;3.83;1.98;;;;;;;5.93;100.00;100245.72;4972821;28;20045;-81
2022/04/18 10:45:24;;;;;;;5.05;2.67;;;;;;;5.90;100.00;100245.56;4972528;28;20080;-77
2022/04/18 10:47:56;;;;;;;5.90;3.22;;;;;;;5.92;100.00;100246.53;4896735;29;20048;-80
2022/04/18 10:50:32;;;;;;;7.35;3.50;;;;;;;5.95;100.00;100246.66;4897166;29;20143;-81
2022/04/18 10:53:17;;;;;;;3.75;1.92;;;;;;;5.92;100.00;100246.53;4896269;29;20043;-83
2022/04/18 10:55:51;;;;;;;2.22;1.20;;;;;;;5.79;100.00;100254.34;4895968;29;20044;-76
2022/04/18 10:58:36;;;;;;;2.33;1.23;;;;;;;5.62;100.00;100248.34;4953330;28;20191;-74
2022/04/18 11:01:08;;;;;;;4.60;1.35;;;;;;;5.44;100.00;100245.69;4953328;29;20042;-77
2022/04/18 11:03:40;;;;;;;1.50;1.30;;;;;;;5.43;100.00;100243.91;4953380;29;20046;-76
2022/04/18 11:06:17;;;;;;;2.83;2.17;;;;;;;5.61;100.00;100242.34;4938620;29;20040;-78
2022/04/18 11:09:06;;;;;;;1.52;1.25;;;;;;;5.55;100.00;100230.91;4933435;29;20027;-80
2022/04/18 11:11:45;;;;;;;2.10;1.60;;;;;;;5.56;100.00;100233.53;4933551;29;20126;-81
2022/04/18 11:14:17;;;;;;;1.65;1.48;;;;;;;5.67;100.00;100247.78;4948526;28;20035;-79
2022/04/18 11:16:42;;;;;;;1.65;1.50;;;;;;;5.57;100.00;100206.25;4945744;29;20051;-79
2022/04/18 11:19:16;;;;;;;1.88;1.45;;;;;;;5.82;100.00;100252.84;4953357;29;20030;-84
2022/04/18 11:21:57;;;;;;;2.22;1.20;;;;;;;5.63;100.00;100198.88;4953293;29;20458;-82
2022/04/18 11:24:56;;;;;;;1.42;1.20;;;;;;;5.78;100.00;100202.25;5021827;28;20052;-80
2022/04/18 11:27:24;;;;;;;1.70;1.40;;;;;;;5.93;100.00;100232.91;5033388;28;20026;-78
2022/04/18 11:29:55;;;;;;;1.58;1.20;;;;;;;5.97;100.00;100228.84;5033558;28;20033;-79
2022/04/18 11:32:33;;;;;;;1.30;1.20;;;;;;;6.00;100.00;100208.50;5016649;28;20037;-83
2022/04/18 11:35:00;;;;;;;2.50;1.65;;;;;;;6.02;100.00;100195.75;5032113;28;20072;-83
2022/04/18 11:37:31;;;;;;;1.40;1.30;;;;;;;6.50;100.00;100234.91;5014490;28;20093;-79
2022/04/18 11:39:59;;;;;;;1.55;1.30;;;;;;;6.54;100.00;100212.88;5032314;28;20665;-77
2022/04/18 11:42:27;;;;;;;2.78;2.05;;;;;;;6.61;100.00;100205.53;5029179;28;20401;-78
2022/04/18 11:44:55;;;;;;;3.13;1.92;;;;;;;6.91;100.00;100220.66;5015165;28;20025;-77
2022/04/18 11:47:34;;;;;;;4.20;2.50;;;;;;;6.90;100.00;100223.16;5022165;28;20030;-80
2022/04/18 11:50:02;;;;;;;1.40;1.27;;;;;;;6.84;100.00;100203.22;5013851;28;20030;-79
2022/04/18 11:52:32;;;;;;;1.77;1.38;;;;;;;6.89;100.00;100212.03;4995398;28;20038;-80
2022/04/18 11:55:01;;;;;;;1.52;1.42;;;;;;;6.94;100.00;100223.38;5012925;28;20064;-79
2022/04/18 11:57:29;;;;;;;1.67;1.33;;;;;;;6.99;100.00;100226.16;5012628;28;20068;-79
2022/04/18 11:59:56;;;;;;;1.80;1.40;;;;;;;7.03;100.00;100201.50;5012093;28;20121;-80
2022/04/18 12:08:05;;;;;;;1.85;1.30;;;;;;;7.09;100.00;100220.66;5012516;28;20491;-79